Time;durP1;ratioP1;P1;durP2;ratioP2;P2;SDS_P1;SDS_P2;PMS_P1;PMS_P2;Temp;Humidity;BMP_temperature;BMP_pressure;BME280_temperature;BME280_humidity;BME280_pressure;Samples;Min_cycle;Max_cycle;Signal;HPM_P1;HPM_P2
2022/03/19 00:01:37;;;;;;;13.00;6.65;;;;;;;5.49;68.54;101595.88;5060809;28;20028;-81
2022/03/19 00:04:03;;;;;;;12.60;7.75;;;;;;;5.53;68.74;101605.19;5087410;28;20041;-80
2022/03/19 00:06:28;;;;;;;10.05;6.82;;;;;;;5.42;68.30;101590.31;5057117;28;20037;-80
2022/03/19 00:08:55;;;;;;;14.68;7.65;;;;;;;5.40;68.94;101587.00;5035322;28;21745;-81
2022/03/19 00:11:27;;;;;;;10.38;7.55;;;;;;;5.46;68.51;101602.28;5058723;28;20039;-80
2022/03/19 00:13:52;;;;;;;11.75;6.93;;;;;;;5.39;68.97;101606.53;5073131;28;20056;-81
2022/03/19 00:16:18;;;;;;;12.85;6.57;;;;;;;5.35;68.49;101602.50;5049202;28;20028;-80
2022/03/19 00:18:43;;;;;;;12.30;7.15;;;;;;;5.37;68.50;101610.31;5057472;28;20036;-81
2022/03/19 00:21:08;;;;;;;10.60;7.45;;;;;;;5.38;68.96;101615.44;5029794;28;20037;-81
2022/03/19 00:23:34;;;;;;;8.90;6.72;;;;;;;5.32;68.92;101610.75;5040767;28;20040;-80
2022/03/19 00:25:59;;;;;;;10.65;7.65;;;;;;;5.36;68.94;101612.09;5044031;28;20074;-81
2022/03/19 00:28:24;;;;;;;10.25;6.75;;;;;;;5.30;68.70;101599.47;5056713;28;20067;-81
2022/03/19 00:30:49;;;;;;;9.95;7.45;;;;;;;5.26;68.66;101598.91;5056926;28;20889;-81
2022/03/19 00:33:15;;;;;;;13.23;6.95;;;;;;;5.22;68.77;101597.53;5067185;28;20060;-80
2022/03/19 00:35:40;;;;;;;12.25;8.45;;;;;;;5.20;68.71;101590.72;5046108;28;20025;-81
2022/03/19 00:38:06;;;;;;;12.38;7.97;;;;;;;5.22;68.85;101594.09;5026137;28;20028;-80
2022/03/19 00:40:33;;;;;;;13.57;8.07;;;;;;;5.26;69.36;101601.56;5036246;28;20028;-80
2022/03/19 00:42:58;;;;;;;13.32;7.93;;;;;;;5.26;69.07;101600.75;5058999;28;20033;-81
2022/03/19 00:45:24;;;;;;;9.70;7.40;;;;;;;5.22;68.69;101605.47;5058643;28;20044;-80
2022/03/19 00:47:49;;;;;;;13.10;7.65;;;;;;;5.11;69.20;101587.13;5058629;28;20493;-80
2022/03/19 00:50:14;;;;;;;14.65;8.43;;;;;;;5.12;69.14;101580.88;5030868;28;20102;-80
2022/03/19 00:52:40;;;;;;;14.32;8.57;;;;;;;5.13;69.07;101584.38;5048488;28;20032;-80
2022/03/19 00:55:07;;;;;;;13.43;8.35;;;;;;;5.13;69.12;101585.16;5059575;28;20048;-81
2022/03/19 00:57:45;;;;;;;11.13;7.97;;;;;;;5.09;69.14;101577.66;5051672;28;20110;-80
2022/03/19 01:00:11;;;;;;;13.82;8.65;;;;;;;5.15;69.29;101593.00;5060686;28;20052;-80
2022/03/19 01:02:41;;;;;;;15.98;8.57;;;;;;;5.10;69.24;101587.28;5061882;28;20028;-80
2022/03/19 01:05:08;;;;;;;12.23;8.75;;;;;;;4.97;69.31;101565.63;5057353;28;20392;-80
2022/03/19 01:07:41;;;;;;;12.57;8.52;;;;;;;5.00;69.28;101567.97;5054544;28;20488;-80
2022/03/19 01:10:07;;;;;;;12.07;7.90;;;;;;;4.96;68.92;101572.72;5089947;28;20037;-81
2022/03/19 01:12:32;;;;;;;9.25;7.50;;;;;;;5.07;69.25;101591.06;5045402;28;20360;-80
2022/03/19 01:14:57;;;;;;;10.30;7.85;;;;;;;5.02;69.05;101588.00;5047010;28;20058;-81
2022/03/19 01:17:23;;;;;;;12.27;7.70;;;;;;;4.99;69.06;101587.47;5026750;28;20038;-80
2022/03/19 01:19:54;;;;;;;10.05;7.53;;;;;;;5.02;69.11;101590.66;5041187;28;20033;-80
2022/03/19 01:22:21;;;;;;;10.63;7.95;;;;;;;4.95;68.84;101576.34;5044349;28;20040;-81
2022/03/19 01:24:47;;;;;;;10.80;8.15;;;;;;;4.90;69.32;101572.47;5060137;28;20067;-80
2022/03/19 01:27:12;;;;;;;16.60;8.35;;;;;;;4.96;69.34;101582.47;5045517;28;20040;-80
2022/03/19 01:29:38;;;;;;;14.95;8.35;;;;;;;4.88;68.94;101559.38;5055041;28;20051;-81
2022/03/19 01:32:04;;;;;;;14.45;8.75;;;;;;;4.89;69.06;101560.22;5044775;28;20217;-80
2022/03/19 01:34:29;;;;;;;18.05;10.52;;;;;;;4.94;69.43;101573.84;5060200;28;20094;-80
2022/03/19 01:36:55;;;;;;;15.05;9.27;;;;;;;4.81;69.15;101552.16;5045382;28;20020;-80
2022/03/19 01:39:20;;;;;;;12.10;8.68;;;;;;;4.92;69.53;101567.84;5044955;28;20025;-80
2022/03/19 01:41:45;;;;;;;12.25;8.48;;;;;;;4.90;69.17;101567.16;5060618;28;20048;-80
2022/03/19 01:44:21;;;;;;;11.85;7.95;;;;;;;4.84;69.15;101554.53;5042254;28;20063;-80
2022/03/19 01:47:02;;;;;;;11.23;8.27;;;;;;;4.77;69.22;101551.63;5062888;28;20398;-81
2022/03/19 01:49:28;;;;;;;15.07;8.13;;;;;;;4.85;69.39;101570.25;5047573;28;20039;-80
2022/03/19 01:51:54;;;;;;;17.00;8.95;;;;;;;4.75;69.63;101548.28;5062925;28;20036;-81
2022/03/19 01:54:28;;;;;;;13.20;8.85;;;;;;;4.81;69.13;101557.44;5064827;28;20029;-82
2022/03/19 01:56:55;;;;;;;11.82;8.23;;;;;;;4.74;69.03;101553.75;5059142;28;20562;-81
2022/03/19 01:59:26;;;;;;;11.88;8.25;;;;;;;4.76;69.95;101560.53;5048986;28;20024;-81
2022/03/19 02:01:52;;;;;;;15.70;8.98;;;;;;;4.70;69.43;101541.75;5061991;28;20031;-81
2022/03/19 02:04:18;;;;;;;13.18;9.38;;;;;;;4.70;69.72;101550.53;5058983;28;20032;-81
2022/03/19 02:06:44;;;;;;;18.42;9.30;;;;;;;4.68;69.46;101546.34;5046738;28;20050;-81
2022/03/19 02:09:10;;;;;;;12.25;8.13;;;;;;;4.58;69.45;101533.19;5042848;28;20024;-81
2022/03/19 02:11:36;;;;;;;12.57;8.45;;;;;;;4.60;69.61;101531.22;5059995;28;20039;-82
2022/03/19 02:14:02;;;;;;;15.68;8.07;;;;;;;4.59;69.48;101532.19;5061304;28;20383;-81
2022/03/19 02:16:27;;;;;;;13.63;8.15;;;;;;;4.71;69.41;101549.56;5033362;28;20025;-81
2022/03/19 02:18:52;;;;;;;13.30;7.57;;;;;;;4.70;69.85;101552.34;5049817;28;20046;-81
2022/03/19 02:21:18;;;;;;;13.60;8.40;;;;;;;4.62;69.59;101533.72;5062120;28;20025;-81
2022/03/19 02:26:41;;;;;;;11.65;8.00;;;;;;;4.62;69.50;101534.56;5065495;28;20083;-81
2022/03/19 02:29:07;;;;;;;12.55;8.50;;;;;;;4.66;69.66;101532.44;5038711;28;20025;-81
2022/03/19 02:31:32;;;;;;;13.43;7.88;;;;;;;4.61;69.52;101535.53;5058189;28;20378;-81
2022/03/19 02:33:57;;;;;;;13.00;7.57;;;;;;;4.53;69.63;101514.25;5063150;28;20074;-82
2022/03/19 02:36:23;;;;;;;11.50;7.05;;;;;;;4.56;69.92;101525.38;5046614;28;20024;-81
2022/03/19 02:38:51;;;;;;;12.15;7.63;;;;;;;4.56;69.81;101503.41;5042243;28;20492;-81
2022/03/19 02:41:16;;;;;;;13.98;7.65;;;;;;;4.59;69.82;101515.50;5055556;28;20123;-81
2022/03/19 02:43:42;;;;;;;12.75;6.93;;;;;;;4.59;69.67;101512.88;5067313;28;20156;-81
2022/03/19 02:46:08;;;;;;;11.88;7.38;;;;;;;4.48;69.57;101498.81;5055889;28;20029;-81
2022/03/19 02:48:34;;;;;;;11.57;8.23;;;;;;;4.47;69.53;101494.53;5045995;28;20044;-81
2022/03/19 02:51:00;;;;;;;10.07;7.53;;;;;;;4.59;69.67;101510.22;5048596;28;20468;-81
2022/03/19 02:53:25;;;;;;;11.80;6.97;;;;;;;4.52;70.15;101500.19;5065426;28;20029;-81
2022/03/19 02:55:51;;;;;;;11.48;8.02;;;;;;;4.48;70.11;101496.19;5062198;28;20031;-82
2022/03/19 02:58:16;;;;;;;11.05;8.15;;;;;;;4.45;69.72;101498.28;5055543;28;20098;-81
2022/03/19 03:00:41;;;;;;;15.13;8.27;;;;;;;4.49;69.65;101492.56;5065506;28;20044;-82
2022/03/19 03:03:07;;;;;;;10.63;6.85;;;;;;;4.42;70.02;101486.19;5049792;28;20051;-81
2022/03/19 03:05:34;;;;;;;7.88;5.95;;;;;;;4.51;69.84;101500.34;5058406;28;20029;-81
2022/03/19 03:08:00;;;;;;;9.40;6.63;;;;;;;4.44;69.51;101497.44;5053786;28;20036;-81
2022/03/19 03:10:25;;;;;;;13.80;7.07;;;;;;;4.41;70.04;101502.19;5074094;28;20166;-81
2022/03/19 03:12:51;;;;;;;8.18;6.90;;;;;;;4.47;69.63;101514.84;5064526;28;20155;-81
2022/03/19 03:15:16;;;;;;;11.85;5.95;;;;;;;4.37;69.92;101514.84;5064521;28;20399;-81
2022/03/19 03:17:41;;;;;;;12.98;7.35;;;;;;;4.35;69.99;101502.75;5047554;28;20044;-82
2022/03/19 03:20:08;;;;;;;13.93;6.60;;;;;;;4.39;69.97;101504.97;5061102;28;20024;-81
2022/03/19 03:22:33;;;;;;;13.52;7.60;;;;;;;4.32;70.32;101498.63;5046658;28;20040;-81
2022/03/19 03:24:58;;;;;;;11.35;6.85;;;;;;;4.42;70.21;101515.28;5062862;28;20058;-81
2022/03/19 03:27:24;;;;;;;10.32;7.32;;;;;;;4.38;69.93;101505.97;5064163;28;20036;-81
2022/03/19 03:29:50;;;;;;;14.57;7.68;;;;;;;4.33;70.43;101494.13;5059328;28;21110;-81
2022/03/19 03:32:15;;;;;;;10.82;7.15;;;;;;;4.40;70.31;101504.00;5059836;28;20033;-81
2022/03/19 03:34:41;;;;;;;14.13;6.80;;;;;;;4.39;70.20;101515.53;5077981;28;20025;-81
2022/03/19 03:37:07;;;;;;;11.32;6.78;;;;;;;4.39;70.09;101512.09;5055593;28;20048;-81
2022/03/19 03:39:32;;;;;;;10.98;7.90;;;;;;;4.32;69.80;101500.41;5045923;28;20064;-81
2022/03/19 03:41:58;;;;;;;9.90;6.97;;;;;;;4.36;70.40;101509.72;5049494;28;20036;-81
2022/03/19 03:44:23;;;;;;;9.52;6.70;;;;;;;4.30;69.87;101511.09;5052326;28;20028;-81
2022/03/19 03:46:48;;;;;;;12.35;7.65;;;;;;;4.24;70.19;101498.47;5049101;28;20032;-80
2022/03/19 03:49:14;;;;;;;10.82;7.57;;;;;;;4.21;70.63;101490.00;5056808;28;20175;-81
2022/03/19 03:51:39;;;;;;;10.13;7.07;;;;;;;4.33;70.45;101512.63;5045606;28;20099;-81
2022/03/19 03:54:06;;;;;;;9.55;7.22;;;;;;;4.21;70.63;101493.50;5056016;28;20043;-81
2022/03/19 03:56:31;;;;;;;10.95;6.85;;;;;;;4.31;70.18;101517.25;5043282;28;20399;-81
2022/03/19 03:58:57;;;;;;;16.67;8.68;;;;;;;4.23;70.96;101510.03;5067863;28;20020;-81
2022/03/19 04:01:23;;;;;;;9.23;7.22;;;;;;;4.31;70.33;101515.44;5057285;28;20044;-82
2022/03/19 04:03:48;;;;;;;9.15;7.25;;;;;;;4.23;70.25;101517.13;5060939;28;20090;-81
2022/03/19 04:06:14;;;;;;;7.80;6.18;;;;;;;4.25;70.82;101510.72;5049978;28;20504;-81
2022/03/19 04:08:39;;;;;;;9.93;7.15;;;;;;;4.16;70.79;101506.28;5059177;28;20108;-81
2022/03/19 04:11:04;;;;;;;12.70;7.65;;;;;;;4.22;70.76;101508.34;5062074;28;20028;-82
2022/03/19 04:13:29;;;;;;;12.85;7.68;;;;;;;4.21;70.68;101511.16;5053302;28;20024;-82
2022/03/19 04:15:55;;;;;;;10.63;7.47;;;;;;;4.22;70.23;101518.94;5054103;28;20024;-81
2022/03/19 04:18:20;;;;;;;14.15;7.70;;;;;;;4.27;70.66;101529.91;5050893;28;20064;-82
2022/03/19 04:20:45;;;;;;;12.07;8.20;;;;;;;4.17;70.43;101515.88;5060976;28;20063;-82
2022/03/19 04:23:11;;;;;;;17.42;8.20;;;;;;;4.14;70.54;101504.75;5047327;28;20594;-81
2022/03/19 04:25:36;;;;;;;10.32;6.85;;;;;;;4.11;70.91;101505.88;5024856;28;20032;-82
2022/03/19 04:28:02;;;;;;;17.75;8.30;;;;;;;4.22;70.65;101516.28;5039408;28;20039;-81
2022/03/19 04:30:27;;;;;;;13.05;7.30;;;;;;;4.22;71.01;101523.38;5056393;28;20043;-82
2022/03/19 04:32:55;;;;;;;15.85;7.38;;;;;;;4.15;70.68;101509.09;5062255;28;20029;-81
2022/03/19 04:38:11;;;;;;;12.30;7.72;;;;;;;4.22;70.74;101524.22;5056847;28;20044;-81
2022/03/19 04:40:37;;;;;;;13.30;7.90;;;;;;;4.18;71.23;101514.91;5046480;28;20034;-81
2022/03/19 04:43:06;;;;;;;11.07;8.10;;;;;;;4.21;71.09;101514.63;5053970;28;20039;-81
2022/03/19 04:45:31;;;;;;;11.65;7.50;;;;;;;4.19;70.69;101516.59;5055997;28;20028;-81
2022/03/19 04:47:57;;;;;;;8.43;7.05;;;;;;;4.21;70.93;101512.00;5044860;28;20465;-81
2022/03/19 04:50:22;;;;;;;13.15;7.75;;;;;;;4.11;70.82;101505.88;5051796;28;20112;-81
2022/03/19 04:52:50;;;;;;;14.00;7.32;;;;;;;4.15;71.17;101512.53;5044508;28;20696;-82
2022/03/19 04:55:16;;;;;;;15.27;8.00;;;;;;;4.14;71.02;101508.25;5061940;28;20507;-81
2022/03/19 04:57:42;;;;;;;10.52;7.38;;;;;;;4.16;70.74;101513.38;5063792;28;20029;-81
2022/03/19 05:00:10;;;;;;;12.95;9.05;;;;;;;4.17;70.59;101510.59;5059263;28;20051;-81
2022/03/19 05:02:35;;;;;;;15.30;8.02;;;;;;;3.89;71.00;101469.19;5061358;28;20503;-81
2022/03/19 05:05:01;;;;;;;13.63;7.43;;;;;;;4.11;71.08;101511.16;5065304;28;20029;-81
2022/03/19 05:07:27;;;;;;;15.70;7.35;;;;;;;3.97;70.78;101495.75;5056852;28;20079;-81
2022/03/19 05:12:40;;;;;;;12.77;7.25;;;;;;;4.08;71.11;101505.34;5056790;28;20090;-81
2022/03/19 05:15:07;;;;;;;14.60;7.40;;;;;;;4.07;70.84;101524.78;5060407;28;20116;-81
2022/03/19 05:17:33;;;;;;;15.93;8.02;;;;;;;4.13;71.04;101526.91;5063777;28;20056;-82
2022/03/19 05:19:58;;;;;;;15.15;7.32;;;;;;;4.01;70.90;101509.50;5060723;28;20519;-82
2022/03/19 05:22:24;;;;;;;12.88;7.03;;;;;;;4.07;70.88;101517.69;5057570;28;20048;-81
2022/03/19 05:24:49;;;;;;;11.77;6.70;;;;;;;3.95;70.84;101510.06;5043969;28;20029;-81
2022/03/19 05:27:15;;;;;;;11.35;7.15;;;;;;;4.06;70.87;101523.97;5056354;28;20124;-81
2022/03/19 05:29:40;;;;;;;14.80;7.28;;;;;;;3.93;70.85;101501.47;5049616;28;20437;-81
2022/03/19 05:32:06;;;;;;;14.43;8.10;;;;;;;4.02;70.74;101514.63;5052524;28;20029;-81
2022/03/19 05:34:32;;;;;;;12.05;7.55;;;;;;;3.96;70.97;101507.28;5068681;28;20024;-81
2022/03/19 05:36:59;;;;;;;11.73;6.72;;;;;;;3.94;70.50;101506.59;5049046;28;20108;-81
2022/03/19 05:39:26;;;;;;;12.30;7.47;;;;;;;3.98;71.13;101518.53;5061990;28;20035;-81
2022/03/19 05:41:51;;;;;;;13.60;7.47;;;;;;;3.94;71.00;101511.03;5064488;28;20020;-81
2022/03/19 05:44:16;;;;;;;16.58;7.97;;;;;;;3.87;70.76;101497.56;5043021;28;20032;-81
2022/03/19 05:46:42;;;;;;;14.30;6.93;;;;;;;4.00;70.37;101523.72;5050119;28;20098;-81
2022/03/19 05:49:07;;;;;;;10.63;7.93;;;;;;;3.96;70.66;101517.00;5063649;28;20087;-81
2022/03/19 05:51:32;;;;;;;11.30;7.68;;;;;;;3.92;70.92;101519.13;5066950;28;20505;-81
2022/03/19 05:53:58;;;;;;;12.73;7.18;;;;;;;3.87;71.21;101513.41;5056266;28;20056;-81
2022/03/19 05:56:24;;;;;;;12.63;7.40;;;;;;;3.95;70.68;101528.56;5040286;28;20392;-81
2022/03/19 05:58:50;;;;;;;10.32;7.20;;;;;;;3.84;70.95;101508.44;5059933;28;20024;-81
2022/03/19 06:01:15;;;;;;;11.25;7.78;;;;;;;3.90;70.46;101517.56;5043273;28;20039;-81
2022/03/19 06:03:41;;;;;;;13.65;7.70;;;;;;;3.87;71.06;101513.41;5061275;28;20479;-81
2022/03/19 06:06:06;;;;;;;8.85;6.97;;;;;;;3.83;71.21;101506.75;5048795;28;20039;-81
2022/03/19 06:08:31;;;;;;;13.02;6.78;;;;;;;3.85;70.76;101509.22;5048059;28;20063;-81
2022/03/19 06:10:56;;;;;;;13.70;8.13;;;;;;;3.89;71.05;101514.09;5057136;28;20032;-81
2022/03/19 06:13:23;;;;;;;10.40;6.45;;;;;;;3.90;70.95;101517.56;5033626;28;20043;-82
2022/03/19 06:15:49;;;;;;;12.10;7.15;;;;;;;3.95;70.99;101528.56;5072650;28;20037;-81
2022/03/19 06:18:14;;;;;;;9.02;6.70;;;;;;;3.94;71.15;101524.25;5059957;28;20040;-81
2022/03/19 06:20:39;;;;;;;12.63;7.40;;;;;;;3.97;71.10;101526.63;5073079;28;20072;-81
2022/03/19 06:23:05;;;;;;;13.75;7.68;;;;;;;3.85;71.13;101504.78;5059239;28;20119;-81
2022/03/19 06:25:30;;;;;;;8.82;6.18;;;;;;;3.69;70.96;101486.84;5050061;28;21171;-81
2022/03/19 06:27:55;;;;;;;8.55;6.63;;;;;;;3.97;71.66;101522.19;5030722;28;20029;-81
2022/03/19 06:30:21;;;;;;;13.50;7.28;;;;;;;3.90;71.05;101513.13;5061504;28;20074;-81
2022/03/19 06:32:48;;;;;;;15.45;7.50;;;;;;;3.89;71.39;101516.75;5050043;28;20496;-81
2022/03/19 06:37:19;;;;;;;12.43;7.63;;;;;;;3.95;71.52;101516.19;5080504;28;20116;-81
2022/03/19 06:37:58;;;;;;;9.25;5.80;;;;;;;3.90;71.42;101507.00;5063045;28;20041;-81
2022/03/19 06:40:24;;;;;;;12.07;6.35;;;;;;;3.95;71.57;101520.66;5070282;28;20549;-81
2022/03/19 06:42:49;;;;;;;13.75;7.35;;;;;;;3.92;71.45;101505.06;5049599;28;20066;-81
2022/03/19 06:45:14;;;;;;;12.15;6.28;;;;;;;4.04;71.74;101525.91;5056352;28;20028;-81
2022/03/19 06:47:39;;;;;;;9.82;6.18;;;;;;;4.02;72.19;101509.34;5052091;28;20040;-81
2022/03/19 06:50:05;;;;;;;9.68;6.80;;;;;;;4.02;71.44;101490.06;5054157;28;20485;-81
2022/03/19 06:52:32;;;;;;;11.80;6.68;;;;;;;4.10;72.34;101514.78;5047762;28;20068;-81
2022/03/19 06:54:58;;;;;;;12.02;6.57;;;;;;;4.00;71.62;101486.72;5062423;28;20032;-81
2022/03/19 06:57:23;;;;;;;11.10;7.20;;;;;;;4.08;72.06;101510.63;5032876;28;20033;-81
2022/03/19 06:59:49;;;;;;;10.18;5.97;;;;;;;4.11;72.36;101513.78;5061382;28;20088;-82
2022/03/19 07:02:14;;;;;;;11.77;6.15;;;;;;;4.10;72.28;101511.31;5048207;28;20033;-81
2022/03/19 07:04:39;;;;;;;16.00;7.15;;;;;;;4.16;72.17;101510.72;5063014;28;20119;-81
2022/03/19 07:07:05;;;;;;;11.52;6.82;;;;;;;4.19;72.60;101513.09;5064578;28;20039;-81
2022/03/19 07:09:30;;;;;;;13.93;7.30;;;;;;;4.08;71.99;101492.13;5066049;28;20365;-81
2022/03/19 07:11:55;;;;;;;9.85;5.60;;;;;;;4.13;71.86;101493.34;5052311;28;20474;-81
2022/03/19 07:14:22;;;;;;;12.30;6.63;;;;;;;4.22;72.14;101496.94;5066635;28;20055;-81
2022/03/19 07:16:47;;;;;;;13.90;6.80;;;;;;;4.23;72.17;101490.69;5062750;28;20029;-81
2022/03/19 07:19:12;;;;;;;11.95;6.05;;;;;;;4.24;72.21;101498.47;5061402;28;20108;-81
2022/03/19 07:21:39;;;;;;;12.38;7.28;;;;;;;4.30;72.28;101495.25;5094067;28;20072;-81
2022/03/19 07:24:05;;;;;;;11.98;6.47;;;;;;;4.31;72.33;101496.94;5056099;28;20032;-81
2022/03/19 07:26:32;;;;;;;10.95;6.60;;;;;;;4.36;72.13;101500.00;5065253;28;20028;-82
2022/03/19 07:28:58;;;;;;;17.63;8.57;;;;;;;4.15;71.99;101462.31;5043690;28;20123;-81
2022/03/19 07:31:23;;;;;;;15.73;7.47;;;;;;;4.36;72.19;101483.28;5063093;28;20436;-81
2022/03/19 07:33:50;;;;;;;10.52;6.60;;;;;;;4.38;72.50;101495.38;5066014;28;20027;-81
2022/03/19 07:36:19;;;;;;;13.10;6.25;;;;;;;4.54;72.41;101497.44;5057021;28;20067;-81
2022/03/19 07:38:44;;;;;;;9.75;6.65;;;;;;;4.43;72.75;101479.09;5065248;28;20479;-81
2022/03/19 07:43:53;;;;;;;16.10;6.18;;;;;;;4.58;71.98;101488.22;5067392;28;20134;-81
2022/03/19 07:46:20;;;;;;;16.17;6.38;;;;;;;4.64;72.49;101486.78;5061529;28;20524;-82
2022/03/19 07:48:46;;;;;;;13.20;6.20;;;;;;;4.63;72.25;101479.84;5045712;28;20059;-81
2022/03/19 07:51:11;;;;;;;14.57;7.22;;;;;;;4.67;72.01;101482.06;5048925;28;20060;-81
2022/03/19 07:53:37;;;;;;;12.57;6.07;;;;;;;4.61;72.39;101458.00;5061009;28;20044;-81
2022/03/19 07:56:03;;;;;;;10.45;6.15;;;;;;;4.64;72.13;101463.81;5051671;28;20020;-81
2022/03/19 07:58:28;;;;;;;11.40;6.22;;;;;;;4.71;71.98;101456.97;5056699;28;20029;-81
2022/03/19 08:00:53;;;;;;;22.65;6.10;;;;;;;4.70;72.20;101457.94;5058896;28;20033;-79
2022/03/19 08:03:19;;;;;;;14.02;5.70;;;;;;;4.75;72.12;101450.41;5063043;28;20094;-79
2022/03/19 08:05:45;;;;;;;15.80;6.25;;;;;;;4.74;72.42;101438.16;5033725;28;20456;-79
2022/03/19 08:08:12;;;;;;;10.15;5.38;;;;;;;4.77;71.74;101451.09;5069687;28;20111;-79
2022/03/19 08:10:38;;;;;;;11.65;6.40;;;;;;;4.86;72.06;101452.03;5063884;28;20024;-78
2022/03/19 08:13:06;;;;;;;13.60;7.00;;;;;;;4.94;72.09;101457.41;5053805;28;20025;-79
2022/03/19 08:15:32;;;;;;;12.20;5.68;;;;;;;4.92;71.82;101454.06;5062373;28;20031;-78
2022/03/19 08:18:01;;;;;;;15.98;5.10;;;;;;;4.84;71.53;101427.53;5063116;28;20436;-78
2022/03/19 08:20:27;;;;;;;13.75;5.03;;;;;;;5.00;71.43;101451.53;5061003;28;20027;-78
2022/03/19 08:22:53;;;;;;;13.35;5.72;;;;;;;4.94;71.41;101431.78;5059177;28;20391;-78
2022/03/19 08:25:18;;;;;;;13.07;4.63;;;;;;;5.00;70.95;101435.66;5030442;28;20032;-78
2022/03/19 08:27:45;;;;;;;10.73;5.00;;;;;;;5.03;71.04;101437.97;5061157;28;20144;-78
2022/03/19 08:30:11;;;;;;;12.95;4.55;;;;;;;5.06;70.81;101443.84;5070222;28;20098;-78
2022/03/19 08:32:36;;;;;;;17.48;5.22;;;;;;;5.09;70.48;101432.94;5047140;28;20032;-78
2022/03/19 08:35:02;;;;;;;14.15;5.22;;;;;;;5.16;70.82;101435.81;5066907;28;20037;-78
2022/03/19 08:37:27;;;;;;;13.73;4.40;;;;;;;5.21;70.70;101439.69;5064805;28;20083;-78
2022/03/19 08:42:38;;;;;;;17.90;4.75;;;;;;;5.24;70.18;101430.63;5062721;28;20063;-78
2022/03/19 08:45:04;;;;;;;11.75;5.38;;;;;;;5.27;70.17;101433.78;5049601;28;20123;-78
2022/03/19 08:47:29;;;;;;;14.75;4.65;;;;;;;5.18;70.26;101421.44;5059171;28;20123;-78
2022/03/19 08:49:55;;;;;;;11.88;4.53;;;;;;;5.26;70.57;101420.69;5068022;28;20446;-78
2022/03/19 08:52:20;;;;;;;11.70;4.22;;;;;;;5.34;70.94;101426.06;5050552;28;20033;-78
2022/03/19 08:54:46;;;;;;;13.80;4.25;;;;;;;5.37;70.84;101422.28;5061160;28;20028;-78
2022/03/19 08:57:11;;;;;;;15.18;5.03;;;;;;;5.45;70.34;101425.00;5044419;28;20073;-78
2022/03/19 08:59:37;;;;;;;14.07;5.25;;;;;;;5.45;70.01;101423.19;5066849;28;20052;-78
2022/03/19 09:02:27;;;;;;;15.75;5.22;;;;;;;5.49;70.09;101424.53;5057986;28;20032;-78
2022/03/19 09:04:52;;;;;;;12.40;4.80;;;;;;;5.53;70.76;101428.53;5061152;28;20598;-78
2022/03/19 09:07:20;;;;;;;13.02;4.18;;;;;;;5.56;70.45;101424.75;5053998;28;20029;-78
2022/03/19 09:09:52;;;;;;;9.88;5.00;;;;;;;5.60;70.67;101426.13;5061449;28;20077;-80
2022/03/19 09:12:18;;;;;;;17.20;4.30;;;;;;;5.63;69.82;101410.75;5061183;28;20032;-79
2022/03/19 09:14:44;;;;;;;16.02;4.97;;;;;;;5.68;70.13;101426.19;5057217;28;20029;-80
2022/03/19 09:17:10;;;;;;;9.77;4.40;;;;;;;5.56;70.95;101391.16;5050696;28;20415;-78
2022/03/19 09:19:37;;;;;;;14.43;4.47;;;;;;;5.71;70.96;101415.28;5059761;28;20044;-79
2022/03/19 09:22:02;;;;;;;15.77;5.20;;;;;;;5.68;70.46;101407.66;5095151;28;20736;-79
2022/03/19 09:24:28;;;;;;;13.68;4.60;;;;;;;5.79;69.86;101413.53;5055001;28;20024;-79
2022/03/19 09:26:53;;;;;;;15.23;5.25;;;;;;;5.81;70.89;101413.38;5074625;28;20079;-78
2022/03/19 09:29:18;;;;;;;14.05;4.97;;;;;;;5.82;70.62;101415.88;5059596;28;20063;-78
2022/03/19 09:31:44;;;;;;;12.30;4.97;;;;;;;5.86;71.14;101408.47;5082689;28;20567;-79
2022/03/19 09:34:10;;;;;;;15.15;6.00;;;;;;;5.92;71.60;101408.66;5065345;28;20427;-80
2022/03/19 09:36:35;;;;;;;10.85;5.30;;;;;;;5.88;70.87;101393.22;5068474;28;20467;-78
2022/03/19 09:39:00;;;;;;;15.57;5.60;;;;;;;5.99;71.68;101400.94;5068454;28;21313;-79
2022/03/19 09:41:26;;;;;;;13.23;5.45;;;;;;;6.00;71.51;101390.19;5057712;28;20025;-79
2022/03/19 09:43:51;;;;;;;14.02;5.30;;;;;;;6.02;71.09;101385.56;5057104;28;20071;-78
2022/03/19 09:46:17;;;;;;;11.63;4.82;;;;;;;6.10;70.65;101389.22;5049482;28;20440;-78
2022/03/19 09:48:43;;;;;;;12.40;5.15;;;;;;;6.13;69.56;101375.66;5059368;28;20033;-79
2022/03/19 09:51:11;;;;;;;8.50;4.75;;;;;;;6.17;70.00;101369.88;5056400;28;20313;-79
2022/03/19 09:53:37;;;;;;;16.67;5.38;;;;;;;6.29;69.90;101370.44;5061765;28;20033;-78
2022/03/19 09:56:03;;;;;;;14.57;5.05;;;;;;;6.23;69.59;101358.63;5050688;28;20211;-78
2022/03/19 09:58:29;;;;;;;13.02;5.75;;;;;;;6.39;69.10;101358.72;5061258;28;20048;-79
2022/03/19 10:00:54;;;;;;;14.35;4.70;;;;;;;6.44;68.76;101358.25;5058356;28;20072;-79
2022/03/19 10:03:22;;;;;;;14.32;5.55;;;;;;;6.43;69.08;101343.31;5072401;28;20065;-78
2022/03/19 10:08:41;;;;;;;9.48;4.30;;;;;;;6.61;69.34;101347.53;5060633;28;20056;-80
2022/03/19 10:11:09;;;;;;;17.30;5.38;;;;;;;6.73;69.43;101359.50;5064308;28;20028;-79
2022/03/19 10:13:40;;;;;;;10.35;5.30;;;;;;;6.78;69.02;101361.66;5050760;28;20086;-79
2022/03/19 10:16:05;;;;;;;15.25;5.10;;;;;;;6.71;69.07;101331.44;5066424;28;20017;-79
2022/03/19 10:18:31;;;;;;;10.55;4.20;;;;;;;6.93;69.48;101348.56;5062725;28;20553;-79
2022/03/19 10:21:03;;;;;;;8.00;4.50;;;;;;;7.00;68.92;101353.06;5061353;28;20593;-79
2022/03/19 10:23:36;;;;;;;13.18;5.30;;;;;;;7.03;68.11;101341.31;5070365;28;20071;-79
2022/03/19 10:26:02;;;;;;;11.68;4.72;;;;;;;7.11;69.04;101343.94;5052424;28;20033;-79
2022/03/19 10:28:30;;;;;;;12.70;4.72;;;;;;;7.20;68.59;101348.28;5065783;28;20132;-79
2022/03/19 10:30:55;;;;;;;14.55;4.43;;;;;;;7.29;68.08;101357.91;5070922;28;20073;-78
2022/03/19 10:33:25;;;;;;;11.07;4.30;;;;;;;7.33;68.47;101338.00;5070406;28;20029;-78
2022/03/19 10:35:50;;;;;;;7.47;3.47;;;;;;;7.37;67.81;101340.16;5069728;28;20024;-78
2022/03/19 10:38:23;;;;;;;6.47;3.00;;;;;;;7.44;66.78;101335.84;5065224;28;20031;-78
2022/03/19 10:40:51;;;;;;;9.00;3.10;;;;;;;7.48;63.24;101333.66;5066015;28;20576;-79
2022/03/19 10:43:18;;;;;;;8.52;2.75;;;;;;;7.49;63.74;101338.78;5065514;28;20020;-79
2022/03/19 10:45:49;;;;;;;5.40;2.30;;;;;;;7.48;63.01;101331.00;5054032;28;20101;-79
2022/03/19 10:48:18;;;;;;;4.50;2.60;;;;;;;7.51;61.47;101336.00;5052648;28;20127;-79
2022/03/19 10:50:44;;;;;;;5.95;2.25;;;;;;;7.45;59.51;101332.16;5050251;28;20037;-80
2022/03/19 10:53:09;;;;;;;5.07;2.20;;;;;;;7.45;57.85;101328.66;5066135;28;20036;-79
2022/03/19 10:55:35;;;;;;;5.20;1.92;;;;;;;7.40;58.36;101315.09;5066270;28;20490;-79
2022/03/19 10:58:01;;;;;;;8.27;2.22;;;;;;;7.33;58.09;101304.28;5051266;28;20388;-79
2022/03/19 11:00:26;;;;;;;7.30;2.08;;;;;;;7.30;57.08;101306.44;5062753;28;20499;-79
2022/03/19 11:02:57;;;;;;;5.95;1.98;;;;;;;7.31;59.37;101290.34;5051782;28;20037;-79
2022/03/19 11:05:24;;;;;;;7.07;2.33;;;;;;;7.31;59.31;101297.47;5061290;28;20488;-80
2022/03/19 11:07:51;;;;;;;4.97;2.00;;;;;;;7.34;58.49;101291.81;5063000;28;20186;-78
2022/03/19 11:10:19;;;;;;;10.23;2.53;;;;;;;7.43;58.58;101296.13;5050832;28;20480;-78
2022/03/19 11:12:50;;;;;;;9.32;2.17;;;;;;;7.43;59.84;101281.03;5049276;28;20119;-78
2022/03/19 11:15:18;;;;;;;5.38;1.90;;;;;;;7.52;60.05;101284.50;5034038;28;20028;-78
2022/03/19 11:17:45;;;;;;;6.75;3.13;;;;;;;7.57;59.60;101272.38;5049444;28;20503;-78
2022/03/19 11:20:12;;;;;;;5.93;2.15;;;;;;;7.61;59.79;101259.56;5064433;28;20086;-78
2022/03/19 11:22:44;;;;;;;3.15;2.13;;;;;;;7.70;59.63;101263.03;5059742;28;20025;-78
2022/03/19 11:25:19;;;;;;;9.20;2.70;;;;;;;7.78;58.88;101253.19;5075445;28;20040;-78
2022/03/19 11:27:48;;;;;;;9.95;2.20;;;;;;;7.81;58.46;101249.38;5064234;28;20032;-78
2022/03/19 11:30:20;;;;;;;7.43;2.17;;;;;;;7.90;59.22;101253.66;5065921;28;20029;-78
2022/03/19 11:33:16;;;;;;;10.82;2.60;;;;;;;7.94;59.03;101236.34;5063278;28;20671;-78
2022/03/19 11:36:04;;;;;;;5.93;2.63;;;;;;;7.95;59.54;101228.19;5058549;28;20368;-78
2022/03/19 11:38:31;;;;;;;6.07;1.50;;;;;;;7.96;59.24;101213.06;5059999;28;20036;-78
2022/03/19 11:40:58;;;;;;;4.38;1.80;;;;;;;8.00;58.72;101209.06;5057045;28;20372;-78